Time;durP1;ratioP1;P1;durP2;ratioP2;P2;SDS_P1;SDS_P2;PMS_P1;PMS_P2;Temp;Humidity;BMP_temperature;BMP_pressure;BME280_temperature;BME280_humidity;BME280_pressure;Samples;Min_cycle;Max_cycle;Signal;HPM_P1;HPM_P2
2021/12/22 00:04:43;;;;;;;37.92;15.75;;;-3.40;99.90;;;;;;6249736;23;20011;-91
2021/12/22 00:07:10;;;;;;;33.90;17.10;;;-3.40;99.90;;;;;;6222398;22;20022;-92
2021/12/22 00:09:36;;;;;;;38.88;17.02;;;-3.00;99.90;;;;;;6196766;23;20027;-91
2021/12/22 00:12:05;;;;;;;34.10;16.42;;;-3.00;99.90;;;;;;6198046;23;20023;-91
2021/12/22 00:14:31;;;;;;;31.60;16.05;;;-3.40;99.90;;;;;;6221843;23;20321;-91
2021/12/22 00:16:56;;;;;;;37.85;16.88;;;-3.40;99.90;;;;;;6221132;23;20020;-92
2021/12/22 00:19:22;;;;;;;37.45;15.80;;;-2.90;99.90;;;;;;6196312;23;20053;-92
2021/12/22 00:21:48;;;;;;;33.50;16.42;;;-3.40;99.90;;;;;;6222678;23;20016;-90
2021/12/22 00:24:21;;;;;;;35.28;16.02;;;-3.50;99.90;;;;;;6197337;22;20066;-92
2021/12/22 00:26:47;;;;;;;34.47;16.55;;;-3.20;99.90;;;;;;6222338;23;20020;-90
2021/12/22 00:29:14;;;;;;;33.10;16.40;;;-3.40;99.90;;;;;;6196478;23;20368;-91
2021/12/22 00:31:44;;;;;;;31.08;15.32;;;-3.60;99.90;;;;;;6196660;23;20020;-91
2021/12/22 00:34:16;;;;;;;36.05;16.38;;;-3.40;99.90;;;;;;6222105;23;20049;-91
2021/12/22 00:36:47;;;;;;;31.45;16.05;;;-3.40;99.90;;;;;;6196491;23;20023;-90
2021/12/22 00:39:13;;;;;;;31.63;15.48;;;-3.70;99.90;;;;;;6220609;23;20016;-90
2021/12/22 00:41:38;;;;;;;30.65;15.32;;;-3.70;99.90;;;;;;6222316;23;20070;-90
2021/12/22 00:44:05;;;;;;;33.85;16.60;;;-3.70;99.90;;;;;;6221026;23;20460;-92
2021/12/22 00:46:42;;;;;;;32.95;16.48;;;-3.70;99.90;;;;;;6222462;23;20051;-91
2021/12/22 00:49:08;;;;;;;31.88;15.23;;;-3.70;99.90;;;;;;6196681;23;20016;-90
2021/12/22 00:51:33;;;;;;;31.20;15.18;;;-3.80;99.90;;;;;;6221306;23;20097;-90
2021/12/22 00:54:03;;;;;;;29.75;15.88;;;-3.80;99.90;;;;;;6196263;23;20099;-90
2021/12/22 00:56:28;;;;;;;31.30;16.23;;;-3.70;99.90;;;;;;6221505;23;20012;-89
2021/12/22 00:58:54;;;;;;;29.10;15.32;;;-3.90;99.90;;;;;;6192106;23;20059;-90
2021/12/22 01:05:15;;;;;;;34.22;15.25;;;-4.00;99.90;;;;;;6247850;23;20007;-91
2021/12/22 01:07:43;;;;;;;42.58;16.50;;;-4.00;99.90;;;;;;6220672;23;20071;-89
2021/12/22 01:10:10;;;;;;;35.78;16.15;;;-4.10;99.90;;;;;;6220411;23;20353;-90
2021/12/22 01:12:38;;;;;;;33.38;16.23;;;-3.60;99.90;;;;;;6221200;23;20023;-89
2021/12/22 01:15:07;;;;;;;38.92;16.20;;;-4.10;99.90;;;;;;6221009;23;20008;-90
2021/12/22 01:17:43;;;;;;;35.13;17.27;;;-4.10;99.90;;;;;;6196209;23;20099;-91
2021/12/22 01:20:21;;;;;;;33.45;16.95;;;-4.00;99.90;;;;;;6196509;23;20395;-88
2021/12/22 01:22:50;;;;;;;39.25;16.95;;;-4.10;99.90;;;;;;6220403;23;20027;-90
2021/12/22 01:25:21;;;;;;;32.30;15.95;;;-3.50;99.90;;;;;;6195405;23;20020;-90
2021/12/22 01:27:47;;;;;;;34.55;16.25;;;-3.90;99.90;;;;;;6196590;23;20305;-89
2021/12/22 01:33:39;;;;;;;36.22;17.40;;;-4.00;99.90;;;;;;6247737;23;20015;-90
2021/12/22 01:36:08;;;;;;;32.08;15.68;;;-4.00;99.90;;;;;;6220748;23;20016;-89
2021/12/22 01:38:34;;;;;;;34.53;16.02;;;-4.00;99.90;;;;;;6220367;23;20078;-89
2021/12/22 01:41:00;;;;;;;37.25;17.17;;;-3.90;99.90;;;;;;6220130;23;20051;-89
2021/12/22 01:43:26;;;;;;;38.50;17.38;;;-3.60;99.90;;;;;;6195618;23;20503;-89
2021/12/22 01:46:09;;;;;;;33.28;16.05;;;-4.00;99.90;;;;;;6220462;23;20016;-88
2021/12/22 01:49:11;;;;;;;30.08;15.15;;;-3.90;99.90;;;;;;6195533;23;20062;-89
2021/12/22 01:51:46;;;;;;;33.38;15.70;;;-3.90;99.90;;;;;;6220381;23;20016;-90
2021/12/22 01:54:23;;;;;;;30.05;15.82;;;-4.00;99.90;;;;;;6219699;23;20024;-89
2021/12/22 01:56:52;;;;;;;31.67;16.83;;;-3.70;99.90;;;;;;6195964;23;20344;-90
2021/12/22 01:59:20;;;;;;;33.13;16.23;;;-4.00;99.90;;;;;;6195189;23;20013;-89
2021/12/22 02:01:48;;;;;;;35.83;16.10;;;-3.70;99.90;;;;;;6220112;23;20043;-89
2021/12/22 02:04:14;;;;;;;32.97;16.35;;;-4.00;99.90;;;;;;6220282;23;20020;-89
2021/12/22 02:06:42;;;;;;;33.75;17.90;;;-4.00;99.90;;;;;;6194898;23;20031;-89
2021/12/22 02:09:11;;;;;;;34.30;16.10;;;-3.90;99.90;;;;;;6220266;23;20042;-89
2021/12/22 02:11:36;;;;;;;33.45;16.02;;;-3.60;99.90;;;;;;6194845;23;20031;-89
2021/12/22 02:14:03;;;;;;;34.35;15.57;;;-3.90;99.90;;;;;;6220630;23;20016;-88
2021/12/22 02:16:33;;;;;;;33.08;15.45;;;-3.90;99.90;;;;;;6194516;23;20020;-90
2021/12/22 02:19:00;;;;;;;33.17;16.23;;;-3.90;99.90;;;;;;6194367;23;20016;-90
2021/12/22 02:21:30;;;;;;;32.13;15.05;;;-3.80;99.90;;;;;;6194517;23;20119;-88
2021/12/22 02:23:56;;;;;;;32.03;15.57;;;-3.70;99.90;;;;;;6195004;23;20111;-89
2021/12/22 02:26:38;;;;;;;30.67;15.63;;;-4.00;99.90;;;;;;6195343;23;20106;-89
2021/12/22 02:29:08;;;;;;;30.95;15.35;;;-4.00;99.90;;;;;;6195039;23;20047;-88
2021/12/22 02:31:41;;;;;;;31.95;15.70;;;-3.80;99.90;;;;;;6219918;23;20030;-90
2021/12/22 02:34:14;;;;;;;34.17;15.20;;;-3.80;99.90;;;;;;6220185;23;20074;-91
2021/12/22 02:36:43;;;;;;;30.75;15.38;;;-4.10;99.90;;;;;;6194968;23;20103;-88
2021/12/22 02:39:10;;;;;;;25.20;14.10;;;-4.00;99.90;;;;;;6219317;23;20016;-88
2021/12/22 02:41:37;;;;;;;32.38;15.55;;;-4.00;99.90;;;;;;6219290;23;20017;-89
2021/12/22 02:44:07;;;;;;;31.75;16.52;;;-4.10;99.90;;;;;;6194445;23;20013;-88
2021/12/22 02:46:36;;;;;;;32.35;15.57;;;-4.10;99.90;;;;;;6219720;23;20474;-89
2021/12/22 02:49:05;;;;;;;27.92;15.02;;;-4.10;99.90;;;;;;6219169;23;20020;-90
2021/12/22 02:51:32;;;;;;;31.65;16.00;;;-4.00;99.90;;;;;;6194725;23;20056;-88
2021/12/22 02:56:37;;;;;;;29.50;15.75;;;-4.10;99.90;;;;;;6220054;23;20375;-88
2021/12/22 02:59:19;;;;;;;33.30;15.30;;;-3.90;99.90;;;;;;6194707;23;20081;-89
2021/12/22 03:04:29;;;;;;;28.65;14.82;;;-4.10;99.90;;;;;;6219727;23;20359;-89
2021/12/22 03:06:59;;;;;;;35.30;15.82;;;-4.10;99.90;;;;;;6194544;23;20027;-89
2021/12/22 03:09:28;;;;;;;33.70;15.55;;;-4.30;99.90;;;;;;6194451;23;20440;-89
2021/12/22 03:11:57;;;;;;;32.08;16.15;;;-4.30;99.90;;;;;;6219715;23;20020;-89
2021/12/22 03:14:25;;;;;;;31.25;15.93;;;-4.30;99.90;;;;;;6219377;23;20023;-88
2021/12/22 03:16:51;;;;;;;34.13;15.45;;;-4.30;99.90;;;;;;6194846;23;20344;-90
2021/12/22 03:19:20;;;;;;;28.13;14.32;;;-4.30;99.90;;;;;;6220059;23;20055;-88
2021/12/22 03:21:47;;;;;;;37.50;16.77;;;-4.30;99.90;;;;;;6219636;23;20387;-89
2021/12/22 03:24:15;;;;;;;30.17;15.80;;;-4.20;99.90;;;;;;6218873;23;20024;-88
2021/12/22 03:26:44;;;;;;;31.02;14.82;;;-4.20;99.90;;;;;;6194466;23;20103;-89
2021/12/22 03:29:12;;;;;;;35.78;15.48;;;-4.30;99.90;;;;;;6194107;23;20388;-88
2021/12/22 03:31:39;;;;;;;29.05;15.30;;;-4.00;99.90;;;;;;6219604;23;20027;-88
2021/12/22 03:34:05;;;;;;;32.17;15.68;;;-4.40;99.90;;;;;;6220486;23;20024;-89
2021/12/22 03:36:31;;;;;;;30.80;15.10;;;-4.40;99.90;;;;;;6221426;23;20547;-88
2021/12/22 03:38:57;;;;;;;31.73;14.45;;;-4.00;99.90;;;;;;6196068;23;20027;-89
2021/12/22 03:41:23;;;;;;;29.77;14.60;;;-4.40;99.90;;;;;;6195542;23;20020;-88
2021/12/22 03:43:48;;;;;;;31.77;15.25;;;-4.40;99.90;;;;;;6196243;23;20016;-88
2021/12/22 03:46:15;;;;;;;31.63;14.88;;;-4.40;99.90;;;;;;6221238;23;20055;-88
2021/12/22 03:48:42;;;;;;;30.80;15.23;;;-4.40;99.90;;;;;;6196210;23;20027;-88
2021/12/22 03:51:08;;;;;;;30.27;14.93;;;-4.40;99.90;;;;;;6196249;23;20028;-88
2021/12/22 03:53:34;;;;;;;30.23;13.82;;;-4.40;99.90;;;;;;6196226;23;20098;-89
2021/12/22 03:55:59;;;;;;;32.88;14.90;;;-4.10;99.90;;;;;;6195972;23;20059;-88
2021/12/22 03:58:25;;;;;;;32.17;15.65;;;-4.40;99.90;;;;;;6221312;23;20016;-87
2021/12/22 04:00:56;;;;;;;31.55;15.57;;;-4.50;99.90;;;;;;6220698;23;20051;-89
2021/12/22 04:03:25;;;;;;;26.95;14.32;;;-4.50;99.90;;;;;;6220965;23;20456;-88
2021/12/22 04:05:51;;;;;;;31.30;15.38;;;-4.50;99.90;;;;;;6196293;23;20031;-88
2021/12/22 04:08:18;;;;;;;35.88;16.95;;;-4.40;99.90;;;;;;6220638;23;20016;-88
2021/12/22 04:10:46;;;;;;;33.10;15.63;;;-4.60;99.90;;;;;;6195789;23;20017;-89
2021/12/22 04:13:12;;;;;;;31.60;15.40;;;-4.60;99.90;;;;;;6196367;23;20031;-88
2021/12/22 04:15:38;;;;;;;32.25;15.73;;;-4.60;99.90;;;;;;6220950;23;20052;-88
2021/12/22 04:18:05;;;;;;;31.90;15.10;;;-4.10;99.90;;;;;;6195869;23;20058;-88
2021/12/22 04:20:30;;;;;;;29.52;14.73;;;-4.60;99.90;;;;;;6195855;23;20095;-88
2021/12/22 04:22:57;;;;;;;32.45;15.80;;;-4.60;99.90;;;;;;6196301;23;20094;-88
2021/12/22 04:25:23;;;;;;;32.60;14.75;;;-4.60;99.90;;;;;;6219911;23;20052;-88
2021/12/22 04:27:52;;;;;;;30.70;15.50;;;-4.50;99.90;;;;;;6221342;23;20027;-88
2021/12/22 04:30:19;;;;;;;32.53;15.43;;;-4.40;99.90;;;;;;6195492;23;20022;-88
2021/12/22 04:32:45;;;;;;;32.92;16.30;;;-4.60;99.90;;;;;;6220854;23;20016;-89
2021/12/22 04:35:11;;;;;;;32.72;15.82;;;-4.70;99.90;;;;;;6220927;23;20394;-88
2021/12/22 04:37:37;;;;;;;34.30;16.00;;;-4.70;99.90;;;;;;6194762;23;20020;-88
2021/12/22 04:40:04;;;;;;;34.25;15.90;;;-4.60;99.90;;;;;;6195476;23;20027;-89
2021/12/22 04:42:30;;;;;;;32.15;15.60;;;-4.70;99.90;;;;;;6195227;23;20016;-88
2021/12/22 04:44:57;;;;;;;33.88;15.23;;;-4.70;99.90;;;;;;6195368;23;20467;-88
2021/12/22 04:47:23;;;;;;;30.23;15.77;;;-4.40;99.90;;;;;;6220853;23;20334;-88
2021/12/22 04:49:49;;;;;;;34.05;14.85;;;-4.70;99.90;;;;;;6195582;23;20024;-88
2021/12/22 04:52:18;;;;;;;30.90;14.27;;;-4.70;99.90;;;;;;6220791;23;20511;-87
2021/12/22 04:55:02;;;;;;;33.45;15.55;;;-4.70;99.90;;;;;;6195327;23;20023;-88
2021/12/22 04:57:29;;;;;;;34.20;15.15;;;-4.80;99.90;;;;;;6195689;23;20024;-88
2021/12/22 04:59:54;;;;;;;31.10;14.70;;;-4.80;99.90;;;;;;6195342;23;20027;-88
2021/12/22 05:02:20;;;;;;;32.10;15.98;;;-4.80;99.90;;;;;;6220966;23;20448;-88
2021/12/22 05:04:49;;;;;;;32.40;15.77;;;-4.80;99.90;;;;;;6220328;23;20012;-88
2021/12/22 05:07:15;;;;;;;34.83;15.50;;;-4.50;99.90;;;;;;6222144;23;20024;-88
2021/12/22 05:09:40;;;;;;;33.75;16.10;;;-4.80;99.90;;;;;;6221207;23;20098;-88
2021/12/22 05:12:09;;;;;;;38.40;16.25;;;-4.70;99.90;;;;;;6196833;23;20025;-88
2021/12/22 05:14:39;;;;;;;31.38;15.07;;;-4.80;99.90;;;;;;6195743;23;20054;-88
2021/12/22 05:17:06;;;;;;;32.50;15.18;;;-4.80;99.90;;;;;;6195654;23;20020;-88
2021/12/22 05:19:32;;;;;;;28.45;14.07;;;-4.80;99.90;;;;;;6220744;23;20091;-88
2021/12/22 05:21:58;;;;;;;29.67;14.38;;;-4.80;99.90;;;;;;6220639;23;20396;-88
2021/12/22 05:24:24;;;;;;;30.98;14.95;;;-4.80;99.90;;;;;;6220220;23;20022;-88
2021/12/22 05:26:56;;;;;;;32.65;15.30;;;-4.80;99.90;;;;;;6195502;23;20056;-88
2021/12/22 05:29:23;;;;;;;30.70;14.95;;;-4.40;99.90;;;;;;6195439;23;20058;-88
2021/12/22 05:31:54;;;;;;;33.85;16.42;;;-4.80;99.90;;;;;;6195326;23;20023;-88
2021/12/22 05:34:19;;;;;;;31.65;14.82;;;-4.80;99.90;;;;;;6220489;23;20348;-88
2021/12/22 05:36:45;;;;;;;36.05;15.32;;;-4.80;99.90;;;;;;6220230;23;20086;-88
2021/12/22 05:39:11;;;;;;;39.22;15.95;;;-4.80;99.90;;;;;;6194833;23;20028;-88
2021/12/22 05:41:37;;;;;;;32.40;15.50;;;-4.30;99.90;;;;;;6195620;23;20081;-88
2021/12/22 05:44:03;;;;;;;34.40;15.63;;;-4.60;99.90;;;;;;6195283;23;20024;-88
2021/12/22 05:46:29;;;;;;;37.33;16.38;;;-4.80;99.90;;;;;;6194657;23;20017;-88
2021/12/22 05:48:55;;;;;;;33.33;15.02;;;-4.90;99.90;;;;;;6195066;23;20062;-88
2021/12/22 05:51:22;;;;;;;38.17;15.70;;;-4.80;99.90;;;;;;6220101;23;20028;-88
2021/12/22 05:53:48;;;;;;;31.85;15.70;;;-4.80;99.90;;;;;;6220019;23;20021;-88
2021/12/22 05:56:14;;;;;;;35.97;14.68;;;-4.60;99.90;;;;;;6219804;23;20388;-88
2021/12/22 05:58:40;;;;;;;29.42;14.60;;;-4.60;99.90;;;;;;6220013;23;20024;-88
2021/12/22 06:01:06;;;;;;;32.58;16.75;;;-4.80;99.90;;;;;;6194981;23;20068;-89
2021/12/22 06:03:44;;;;;;;33.85;15.95;;;-4.60;99.90;;;;;;6219792;23;20016;-88
2021/12/22 06:06:16;;;;;;;33.58;15.85;;;-4.80;99.90;;;;;;6220084;23;20452;-87
2021/12/22 06:08:42;;;;;;;35.60;14.90;;;-4.20;99.90;;;;;;6195494;23;20384;-89
2021/12/22 06:11:13;;;;;;;33.13;15.35;;;-4.90;99.90;;;;;;6219465;23;20075;-88
2021/12/22 06:13:42;;;;;;;35.88;15.35;;;-4.70;99.90;;;;;;6194790;23;20012;-88
2021/12/22 06:16:09;;;;;;;30.02;15.18;;;-4.80;99.90;;;;;;6219535;23;20016;-87
2021/12/22 06:18:41;;;;;;;35.13;15.90;;;-4.80;99.90;;;;;;6194961;23;20023;-88
2021/12/22 06:21:07;;;;;;;35.42;15.95;;;-4.80;99.90;;;;;;6194559;23;20429;-88
2021/12/22 06:23:32;;;;;;;31.70;14.30;;;-4.80;99.90;;;;;;6219941;23;20022;-87
2021/12/22 06:25:58;;;;;;;32.85;15.57;;;-4.70;99.90;;;;;;6220144;23;20028;-87
2021/12/22 06:28:24;;;;;;;33.90;16.42;;;-4.70;99.90;;;;;;6219771;23;20478;-87
2021/12/22 06:31:00;;;;;;;37.15;15.43;;;-4.70;99.90;;;;;;6194265;23;20026;-88
2021/12/22 06:33:25;;;;;;;34.30;15.20;;;-4.50;99.90;;;;;;6219597;23;20407;-88
2021/12/22 06:35:51;;;;;;;34.28;15.27;;;-4.80;99.90;;;;;;6194457;23;20070;-87
2021/12/22 06:38:17;;;;;;;37.25;16.33;;;-4.80;99.90;;;;;;6194579;23;20024;-88
2021/12/22 06:40:43;;;;;;;33.83;15.20;;;-4.80;99.90;;;;;;6194635;23;20442;-88
2021/12/22 06:43:09;;;;;;;32.83;14.85;;;-4.70;99.90;;;;;;6193319;23;20020;-88
2021/12/22 06:45:35;;;;;;;32.45;14.98;;;-4.70;99.90;;;;;;6219888;23;20016;-88
2021/12/22 06:48:01;;;;;;;34.33;15.35;;;-4.80;99.90;;;;;;6219601;23;20027;-88
2021/12/22 06:50:27;;;;;;;34.67;15.63;;;-4.80;99.90;;;;;;6194394;23;20452;-88
2021/12/22 06:52:53;;;;;;;29.98;13.95;;;-4.70;99.90;;;;;;6194856;23;20016;-88
2021/12/22 06:55:18;;;;;;;33.78;14.43;;;-4.80;99.90;;;;;;6194403;23;20103;-88
2021/12/22 06:57:44;;;;;;;33.45;15.25;;;-4.40;99.90;;;;;;6219021;23;20020;-87
2021/12/22 07:00:12;;;;;;;30.50;14.05;;;-4.70;99.90;;;;;;6194864;23;20023;-88
2021/12/22 07:02:38;;;;;;;33.95;14.25;;;-4.90;99.90;;;;;;6193904;23;20031;-88
2021/12/22 07:05:10;;;;;;;32.40;14.80;;;-4.90;99.90;;;;;;6193886;23;20447;-87
2021/12/22 07:07:37;;;;;;;35.38;14.75;;;-4.90;99.90;;;;;;6194464;23;20027;-88
2021/12/22 07:10:07;;;;;;;29.92;14.48;;;-4.90;99.90;;;;;;6196972;23;20107;-88
2021/12/22 07:12:34;;;;;;;34.50;15.10;;;-4.90;99.90;;;;;;6196629;23;20436;-88
2021/12/22 07:15:01;;;;;;;27.40;14.27;;;-4.60;99.90;;;;;;6221694;23;20055;-87
2021/12/22 07:17:27;;;;;;;33.15;15.45;;;-4.80;99.90;;;;;;6196503;23;20017;-87
2021/12/22 07:19:53;;;;;;;29.42;13.88;;;-4.40;99.90;;;;;;6221421;23;20020;-87
2021/12/22 07:22:19;;;;;;;32.95;15.07;;;-4.70;99.90;;;;;;6221913;23;20023;-87
2021/12/22 07:24:44;;;;;;;30.88;13.45;;;-4.90;99.90;;;;;;6195870;23;20020;-88
2021/12/22 07:27:10;;;;;;;36.95;15.05;;;-4.60;99.90;;;;;;6221001;23;20091;-87
2021/12/22 07:29:37;;;;;;;32.33;13.95;;;-4.90;99.90;;;;;;6221046;23;20043;-88
2021/12/22 07:32:23;;;;;;;35.58;14.52;;;-4.80;99.90;;;;;;6221508;23;20032;-88
2021/12/22 07:35:04;;;;;;;29.50;13.50;;;-4.80;99.90;;;;;;6196566;23;20012;-88
2021/12/22 07:37:39;;;;;;;33.53;14.65;;;-4.80;99.90;;;;;;6221521;23;20016;-88
2021/12/22 07:40:09;;;;;;;30.70;14.38;;;-4.50;99.90;;;;;;6220837;23;20074;-87
2021/12/22 07:42:35;;;;;;;28.08;13.18;;;-4.80;99.90;;;;;;6196178;23;20017;-88
2021/12/22 07:45:01;;;;;;;29.25;13.15;;;-4.80;99.90;;;;;;6221075;23;20022;-87
2021/12/22 07:47:27;;;;;;;32.42;14.90;;;-4.80;99.90;;;;;;6196155;23;20066;-88
2021/12/22 07:49:52;;;;;;;30.70;14.25;;;-4.80;99.90;;;;;;6196751;23;20020;-88
2021/12/22 07:52:18;;;;;;;28.95;13.70;;;-4.70;99.90;;;;;;6221533;23;20052;-87
2021/12/22 07:54:44;;;;;;;31.95;13.43;;;-4.70;99.90;;;;;;6196470;23;20016;-87
2021/12/22 07:57:10;;;;;;;29.90;14.68;;;-4.60;99.90;;;;;;6196249;23;20020;-87
2021/12/22 07:59:35;;;;;;;38.38;14.05;;;-4.60;99.90;;;;;;6221024;23;20074;-88
2021/12/22 08:02:02;;;;;;;32.75;13.63;;;-4.60;99.90;;;;;;6195922;23;20131;-88
2021/12/22 08:04:28;;;;;;;28.20;14.02;;;-4.50;99.90;;;;;;6196234;23;20024;-88
2021/12/22 08:06:54;;;;;;;31.73;14.60;;;-4.30;99.90;;;;;;6196342;23;20081;-87
2021/12/22 08:09:25;;;;;;;35.47;15.00;;;-4.40;99.90;;;;;;6196107;23;20020;-87
2021/12/22 08:11:56;;;;;;;36.30;15.07;;;-4.30;99.90;;;;;;6196111;23;20031;-87
2021/12/22 08:14:23;;;;;;;28.92;13.15;;;-4.30;99.90;;;;;;6220896;23;20347;-87
2021/12/22 08:16:52;;;;;;;32.97;14.23;;;-3.80;99.90;;;;;;6195208;23;20067;-87
2021/12/22 08:19:18;;;;;;;33.67;15.20;;;-4.00;99.90;;;;;;6221043;23;20016;-87
2021/12/22 08:21:46;;;;;;;32.05;14.40;;;-4.20;99.90;;;;;;6220213;23;20074;-87
2021/12/22 08:24:13;;;;;;;28.75;14.30;;;-4.20;99.90;;;;;;6220903;23;20020;-87
2021/12/22 08:26:39;;;;;;;34.65;14.90;;;-4.00;99.90;;;;;;6195402;23;20110;-87
2021/12/22 08:29:05;;;;;;;30.65;13.43;;;-4.00;99.90;;;;;;6195625;23;20020;-87
2021/12/22 08:31:31;;;;;;;56.03;23.60;;;-4.00;99.90;;;;;;6220736;23;20094;-87
2021/12/22 08:33:57;;;;;;;41.65;17.90;;;-3.70;99.90;;;;;;6195253;23;20448;-88
2021/12/22 08:39:12;;;;;;;31.00;14.45;;;-3.90;99.90;;;;;;6220635;23;20028;-87
2021/12/22 08:41:47;;;;;;;38.53;15.60;;;-3.80;99.90;;;;;;6195434;23;20020;-87
2021/12/22 08:44:14;;;;;;;32.67;14.13;;;-3.70;99.90;;;;;;6195699;23;20024;-87
2021/12/22 08:46:43;;;;;;;32.63;14.30;;;-3.60;99.90;;;;;;6195711;23;20020;-88
2021/12/22 08:49:09;;;;;;;28.13;13.63;;;-3.50;99.90;;;;;;6196228;23;20026;-87
2021/12/22 08:51:35;;;;;;;31.33;14.95;;;-3.50;99.90;;;;;;6195440;23;20099;-87
2021/12/22 08:54:01;;;;;;;37.88;16.20;;;-3.40;99.90;;;;;;6195488;23;20023;-88
2021/12/22 08:56:29;;;;;;;57.08;20.33;;;-3.40;99.90;;;;;;6195122;23;20016;-87
2021/12/22 08:58:55;;;;;;;34.35;14.63;;;-3.30;99.90;;;;;;6220690;23;20348;-88
2021/12/22 09:01:26;;;;;;;28.38;13.75;;;-3.10;99.90;;;;;;6220627;23;20020;-88
2021/12/22 09:03:52;;;;;;;39.38;17.17;;;-3.00;99.90;;;;;;6220586;23;20052;-89
2021/12/22 09:06:17;;;;;;;51.80;22.98;;;-3.20;99.90;;;;;;6195494;23;20410;-88
2021/12/22 09:08:44;;;;;;;31.20;16.67;;;-3.20;99.90;;;;;;6195445;23;20055;-88
2021/12/22 09:11:11;;;;;;;29.67;14.23;;;-3.20;99.90;;;;;;6220341;23;20062;-88
2021/12/22 09:13:39;;;;;;;25.90;13.75;;;-3.10;99.90;;;;;;6220028;23;20019;-88
2021/12/22 09:16:06;;;;;;;26.77;13.52;;;-3.10;99.90;;;;;;6194895;23;20091;-88
2021/12/22 09:18:32;;;;;;;27.15;13.95;;;-3.00;99.90;;;;;;6195462;23;20099;-89
2021/12/22 09:20:57;;;;;;;27.70;13.82;;;-3.00;99.90;;;;;;6220295;23;20392;-87
2021/12/22 09:23:23;;;;;;;25.45;13.98;;;-2.80;99.90;;;;;;6220340;23;20348;-88
2021/12/22 09:25:49;;;;;;;30.25;14.98;;;-2.70;99.90;;;;;;6195077;23;20436;-88
2021/12/22 09:28:15;;;;;;;24.20;13.20;;;-2.40;99.90;;;;;;6195367;23;20024;-88
2021/12/22 09:30:43;;;;;;;23.13;13.25;;;-2.30;99.90;;;;;;6220355;23;20016;-88
2021/12/22 09:33:11;;;;;;;26.50;13.32;;;-1.70;99.90;;;;;;6220159;23;20016;-89
2021/12/22 09:35:38;;;;;;;23.25;13.00;;;-1.70;99.90;;;;;;6195126;23;20078;-89
2021/12/22 09:38:05;;;;;;;23.65;12.40;;;-1.30;99.90;;;;;;6195026;23;20024;-88
2021/12/22 09:40:31;;;;;;;26.00;12.77;;;-0.90;99.90;;;;;;6219982;23;20031;-89
2021/12/22 09:42:57;;;;;;;21.05;11.52;;;-0.40;99.90;;;;;;6220172;23;20027;-89
2021/12/22 09:45:25;;;;;;;23.95;12.73;;;-0.30;99.90;;;;;;6220218;23;20020;-89
2021/12/22 09:50:46;;;;;;;22.95;11.68;;;0.40;99.90;;;;;;6220067;23;20020;-89
2021/12/22 09:53:19;;;;;;;20.90;10.75;;;0.80;99.90;;;;;;6194905;23;20023;-89
2021/12/22 09:55:46;;;;;;;18.35;10.55;;;1.30;99.90;;;;;;6219863;23;20027;-90
2021/12/22 09:58:12;;;;;;;17.35;10.07;;;1.70;99.90;;;;;;6220270;23;20012;-89
2021/12/22 10:00:39;;;;;;;18.85;10.43;;;1.80;99.90;;;;;;6195046;23;20051;-89
2021/12/22 10:03:06;;;;;;;17.65;10.93;;;1.90;99.90;;;;;;6195293;23;20313;-91
2021/12/22 10:05:33;;;;;;;19.30;10.80;;;1.90;99.90;;;;;;6195073;23;20028;-90
2021/12/22 10:08:11;;;;;;;17.77;10.68;;;1.90;99.90;;;;;;6220062;23;20020;-89
2021/12/22 10:10:40;;;;;;;20.05;12.07;;;2.00;99.90;;;;;;6219965;23;20016;-90
2021/12/22 10:13:13;;;;;;;21.00;10.82;;;2.30;99.90;;;;;;6195212;23;20020;-90
2021/12/22 10:15:39;;;;;;;16.33;10.18;;;2.60;99.90;;;;;;6195156;23;20028;-90
2021/12/22 10:18:14;;;;;;;18.33;9.98;;;3.00;99.90;;;;;;6219715;23;20016;-89
2021/12/22 10:20:42;;;;;;;29.45;17.42;;;3.50;99.90;;;;;;6194106;23;20020;-90
2021/12/22 10:23:23;;;;;;;20.15;10.48;;;3.80;99.90;;;;;;6219873;23;20059;-88
2021/12/22 10:25:58;;;;;;;16.92;10.13;;;3.70;99.90;;;;;;6194488;23;20100;-89
2021/12/22 10:28:26;;;;;;;14.07;9.48;;;3.70;99.90;;;;;;6194805;23;20035;-88
2021/12/22 10:30:58;;;;;;;13.73;9.30;;;3.30;99.90;;;;;;6194717;23;20028;-89
2021/12/22 10:33:31;;;;;;;19.08;9.80;;;2.90;99.90;;;;;;6219734;23;20016;-88
2021/12/22 10:36:09;;;;;;;17.83;10.10;;;2.50;99.90;;;;;;6194655;23;20059;-88
2021/12/22 10:38:34;;;;;;;16.58;9.88;;;2.10;99.90;;;;;;6194507;23;20355;-89
2021/12/22 10:41:09;;;;;;;21.60;10.85;;;2.10;99.90;;;;;;6219922;23;20016;-89
2021/12/22 10:43:44;;;;;;;18.77;9.60;;;1.70;99.90;;;;;;6220589;23;20017;-89
2021/12/22 10:46:15;;;;;;;19.85;10.52;;;1.30;99.90;;;;;;6219993;23;20062;-90
2021/12/22 10:51:36;;;;;;;19.02;10.43;;;1.20;99.90;;;;;;6219530;23;20024;-89
2021/12/22 10:54:08;;;;;;;19.80;10.30;;;1.60;99.90;;;;;;6194282;23;20066;-89
2021/12/22 10:56:40;;;;;;;17.73;9.98;;;1.80;99.90;;;;;;6219213;23;20070;-90
2021/12/22 10:59:07;;;;;;;16.73;10.25;;;1.60;99.90;;;;;;6219932;23;20043;-90
2021/12/22 11:01:35;;;;;;;17.15;10.35;;;1.90;99.90;;;;;;6194780;23;20456;-90
2021/12/22 11:04:05;;;;;;;22.90;10.45;;;2.00;99.90;;;;;;6219872;23;20020;-89
2021/12/22 11:06:37;;;;;;;19.88;10.95;;;2.40;99.90;;;;;;6195280;23;20020;-89
2021/12/22 11:09:15;;;;;;;21.52;11.90;;;2.50;99.90;;;;;;6220116;23;20020;-90
2021/12/22 11:11:54;;;;;;;21.65;10.93;;;2.10;99.90;;;;;;6195008;23;20095;-90
2021/12/22 11:14:29;;;;;;;23.48;11.20;;;2.10;99.90;;;;;;6220208;23;20043;-89
2021/12/22 11:17:12;;;;;;;17.60;10.48;;;2.40;99.90;;;;;;6220207;23;20095;-90
2021/12/22 11:19:49;;;;;;;19.38;10.65;;;2.00;99.90;;;;;;6195290;23;20020;-90
2021/12/22 11:22:35;;;;;;;26.52;12.02;;;2.00;99.90;;;;;;6196298;23;20016;-89
2021/12/22 11:25:01;;;;;;;19.90;10.55;;;1.90;99.90;;;;;;6222746;23;20027;-89
2021/12/22 11:27:43;;;;;;;19.33;10.20;;;1.70;99.90;;;;;;6224413;23;20051;-89
2021/12/22 11:30:09;;;;;;;20.00;10.95;;;1.60;99.90;;;;;;6196217;23;20345;-89
2021/12/22 11:32:35;;;;;;;21.33;11.32;;;1.20;99.90;;;;;;6220286;23;20107;-89
2021/12/22 11:35:06;;;;;;;19.35;11.48;;;1.10;99.90;;;;;;6194686;22;20027;-89
2021/12/22 11:37:32;;;;;;;18.98;10.52;;;0.90;99.90;;;;;;6195144;23;20344;-90
2021/12/22 11:39:58;;;;;;;23.23;11.60;;;0.90;99.90;;;;;;6195302;23;20096;-89
2021/12/22 11:42:37;;;;;;;22.20;11.88;;;0.90;99.90;;;;;;6220307;23;20318;-89
2021/12/22 11:45:25;;;;;;;21.00;12.13;;;0.90;99.90;;;;;;6220369;23;20016;-89
2021/12/22 11:51:39;;;;;;;18.40;10.33;;;0.90;99.90;;;;;;6246090;23;20019;-90
2021/12/22 12:23:33;;;;;;;25.52;12.52;;;1.10;99.90;;;;;;6221641;23;20135;-89
2021/12/22 12:26:04;;;;;;;23.83;11.68;;;1.10;99.90;;;;;;6221299;23;20027;-90
2021/12/22 12:28:31;;;;;;;29.63;13.70;;;0.70;99.90;;;;;;6196925;23;20020;-90
2021/12/22 12:30:59;;;;;;;24.13;11.65;;;1.20;99.90;;;;;;6222036;23;20020;-88
2021/12/22 12:33:42;;;;;;;24.27;13.75;;;0.80;99.90;;;;;;6222174;23;20321;-89
2021/12/22 12:36:48;;;;;;;30.70;15.05;;;0.80;99.90;;;;;;6195896;23;20460;-89
2021/12/22 12:39:13;;;;;;;22.10;12.38;;;0.80;99.90;;;;;;6195351;23;20066;-89
2021/12/22 12:42:25;;;;;;;20.90;11.30;;;0.60;99.90;;;;;;6221087;23;20095;-89
2021/12/22 12:44:51;;;;;;;21.63;11.43;;;0.80;99.90;;;;;;6196634;23;20108;-88
2021/12/22 12:47:20;;;;;;;21.67;11.50;;;1.00;99.90;;;;;;6194736;23;20052;-89
2021/12/22 12:49:50;;;;;;;21.55;11.00;;;0.90;99.90;;;;;;6221206;23;20034;-89
2021/12/22 12:52:22;;;;;;;19.58;10.40;;;0.90;99.90;;;;;;6221172;23;20095;-89
2021/12/22 12:54:49;;;;;;;22.25;11.10;;;0.90;99.90;;;;;;6221168;23;20012;-89
2021/12/22 12:57:50;;;;;;;26.42;11.63;;;0.90;99.90;;;;;;6221067;23;20458;-89
2021/12/22 13:00:21;;;;;;;24.48;12.00;;;0.90;99.90;;;;;;6220036;23;20023;-88
2021/12/22 13:02:47;;;;;;;;;;;1.00;99.90;;;;;;6221618;23;20051;-89
2021/12/22 13:05:19;;;;;;;24.17;11.05;;;1.00;99.90;;;;;;6196041;23;19919;-90
2021/12/22 13:07:45;;;;;;;20.75;10.82;;;1.00;99.90;;;;;;6220169;23;20016;-88
2021/12/22 13:10:16;;;;;;;20.17;11.40;;;0.90;99.90;;;;;;6220865;23;20020;-88
2021/12/22 13:22:20;;;;;;;23.63;10.52;;;1.10;99.90;;;;;;6247493;22;20166;-89
2021/12/22 13:24:46;;;;;;;24.75;11.70;;;1.10;99.90;;;;;;6221668;23;20364;-89
2021/12/22 13:27:48;;;;;;;22.60;11.85;;;1.10;99.90;;;;;;6220845;23;20020;-89
2021/12/22 13:30:22;;;;;;;22.42;11.80;;;1.10;99.90;;;;;;6220714;23;20024;-89
2021/12/22 13:36:20;;;;;;;19.35;11.50;;;1.10;99.90;;;;;;6220135;23;20048;-89
2021/12/22 13:38:54;;;;;;;22.23;11.93;;;1.20;99.90;;;;;;6196033;23;20047;-89
2021/12/22 13:41:26;;;;;;;20.92;10.35;;;1.10;99.90;;;;;;6219971;23;20456;-89
2021/12/22 13:43:51;;;;;;;20.40;12.15;;;0.90;99.90;;;;;;6220737;23;20440;-89
2021/12/22 13:46:23;;;;;;;23.17;12.15;;;0.80;99.90;;;;;;6195367;23;20109;-89
2021/12/22 13:48:54;;;;;;;22.63;12.63;;;0.70;99.90;;;;;;6196182;23;20412;-89
2021/12/22 19:20:17;;;;;;;25.85;14.48;;;-1.60;99.90;;;;;;6246963;22;20032;-91